sensor_id;sensor_type;location;lat;lon;timestamp;P1;durP1;ratioP1;P2;durP2;ratioP2
37459;SDS011;23318;50.966;5.284;2023-03-21T00:00:25;20.45;;;7.95;;
37459;SDS011;23318;50.966;5.284;2023-03-21T00:02:51;21.98;;;7.55;;
37459;SDS011;23318;50.966;5.284;2023-03-21T00:05:16;19.92;;;8.00;;
37459;SDS011;23318;50.966;5.284;2023-03-21T00:07:44;21.67;;;7.97;;
37459;SDS011;23318;50.966;5.284;2023-03-21T00:10:10;19.45;;;8.18;;
37459;SDS011;23318;50.966;5.284;2023-03-21T00:12:36;19.05;;;7.47;;
37459;SDS011;23318;50.966;5.284;2023-03-21T00:15:03;17.40;;;8.02;;
37459;SDS011;23318;50.966;5.284;2023-03-21T00:17:30;17.73;;;8.20;;
37459;SDS011;23318;50.966;5.284;2023-03-21T00:19:57;20.23;;;7.45;;
37459;SDS011;23318;50.966;5.284;2023-03-21T00:22:24;20.23;;;7.90;;
37459;SDS011;23318;50.966;5.284;2023-03-21T00:24:51;22.10;;;8.20;;
37459;SDS011;23318;50.966;5.284;2023-03-21T00:27:17;17.15;;;7.15;;
37459;SDS011;23318;50.966;5.284;2023-03-21T00:29:46;23.95;;;8.40;;
37459;SDS011;23318;50.966;5.284;2023-03-21T00:32:16;11.23;;;6.63;;
37459;SDS011;23318;50.966;5.284;2023-03-21T00:34:42;22.30;;;8.50;;
37459;SDS011;23318;50.966;5.284;2023-03-21T00:37:11;16.63;;;7.25;;
37459;SDS011;23318;50.966;5.284;2023-03-21T00:39:40;21.00;;;8.10;;
37459;SDS011;23318;50.966;5.284;2023-03-21T00:42:08;19.25;;;8.30;;
37459;SDS011;23318;50.966;5.284;2023-03-21T00:44:34;20.70;;;8.00;;
37459;SDS011;23318;50.966;5.284;2023-03-21T00:47:04;23.23;;;8.65;;
37459;SDS011;23318;50.966;5.284;2023-03-21T00:49:30;20.25;;;7.93;;
37459;SDS011;23318;50.966;5.284;2023-03-21T00:51:59;20.38;;;7.30;;
37459;SDS011;23318;50.966;5.284;2023-03-21T00:54:26;15.00;;;7.30;;
37459;SDS011;23318;50.966;5.284;2023-03-21T00:56:52;18.02;;;6.95;;
37459;SDS011;23318;50.966;5.284;2023-03-21T00:59:18;24.75;;;8.07;;
37459;SDS011;23318;50.966;5.284;2023-03-21T01:01:44;23.25;;;8.55;;
37459;SDS011;23318;50.966;5.284;2023-03-21T01:04:12;26.85;;;8.15;;
37459;SDS011;23318;50.966;5.284;2023-03-21T01:06:41;20.08;;;7.68;;
37459;SDS011;23318;50.966;5.284;2023-03-21T01:09:12;14.55;;;7.43;;
37459;SDS011;23318;50.966;5.284;2023-03-21T01:11:40;22.30;;;7.35;;
37459;SDS011;23318;50.966;5.284;2023-03-21T01:14:07;16.35;;;7.32;;
37459;SDS011;23318;50.966;5.284;2023-03-21T01:16:33;18.02;;;7.40;;
37459;SDS011;23318;50.966;5.284;2023-03-21T01:19:00;20.15;;;7.20;;
37459;SDS011;23318;50.966;5.284;2023-03-21T01:21:26;15.18;;;6.40;;
37459;SDS011;23318;50.966;5.284;2023-03-21T01:23:52;17.40;;;6.60;;
37459;SDS011;23318;50.966;5.284;2023-03-21T01:26:17;21.83;;;8.07;;
37459;SDS011;23318;50.966;5.284;2023-03-21T01:28:43;19.70;;;7.10;;
37459;SDS011;23318;50.966;5.284;2023-03-21T01:31:10;16.83;;;6.95;;
37459;SDS011;23318;50.966;5.284;2023-03-21T01:33:39;16.73;;;6.60;;
37459;SDS011;23318;50.966;5.284;2023-03-21T01:36:05;18.77;;;6.90;;
37459;SDS011;23318;50.966;5.284;2023-03-21T01:38:32;16.27;;;7.03;;
37459;SDS011;23318;50.966;5.284;2023-03-21T01:41:00;17.50;;;6.82;;
37459;SDS011;23318;50.966;5.284;2023-03-21T01:43:30;16.38;;;6.38;;
37459;SDS011;23318;50.966;5.284;2023-03-21T01:48:56;17.95;;;7.22;;
37459;SDS011;23318;50.966;5.284;2023-03-21T01:51:27;18.17;;;7.63;;
37459;SDS011;23318;50.966;5.284;2023-03-21T01:53:54;13.43;;;6.75;;
37459;SDS011;23318;50.966;5.284;2023-03-21T01:56:23;18.33;;;6.47;;
37459;SDS011;23318;50.966;5.284;2023-03-21T01:58:54;17.33;;;7.03;;
37459;SDS011;23318;50.966;5.284;2023-03-21T02:01:38;13.65;;;6.45;;
37459;SDS011;23318;50.966;5.284;2023-03-21T02:04:06;19.60;;;6.65;;
37459;SDS011;23318;50.966;5.284;2023-03-21T02:06:45;18.52;;;6.35;;
37459;SDS011;23318;50.966;5.284;2023-03-21T02:09:17;15.73;;;6.57;;
37459;SDS011;23318;50.966;5.284;2023-03-21T02:11:46;17.90;;;6.70;;
37459;SDS011;23318;50.966;5.284;2023-03-21T02:14:14;15.57;;;6.40;;
37459;SDS011;23318;50.966;5.284;2023-03-21T02:30:44;14.70;;;6.78;;
37459;SDS011;23318;50.966;5.284;2023-03-21T02:36:27;15.88;;;6.90;;
37459;SDS011;23318;50.966;5.284;2023-03-21T02:39:09;16.73;;;6.85;;
37459;SDS011;23318;50.966;5.284;2023-03-21T02:47:15;23.60;;;6.88;;
37459;SDS011;23318;50.966;5.284;2023-03-21T02:49:53;17.50;;;7.25;;
37459;SDS011;23318;50.966;5.284;2023-03-21T02:52:28;23.02;;;7.68;;
37459;SDS011;23318;50.966;5.284;2023-03-21T02:54:55;15.32;;;6.47;;
37459;SDS011;23318;50.966;5.284;2023-03-21T02:57:25;16.25;;;6.85;;
37459;SDS011;23318;50.966;5.284;2023-03-21T02:59:51;17.88;;;6.90;;
37459;SDS011;23318;50.966;5.284;2023-03-21T03:02:19;14.00;;;6.30;;
37459;SDS011;23318;50.966;5.284;2023-03-21T03:04:48;18.38;;;6.70;;
37459;SDS011;23318;50.966;5.284;2023-03-21T03:19:09;18.60;;;7.38;;
37459;SDS011;23318;50.966;5.284;2023-03-21T03:21:21;14.93;;;6.47;;
37459;SDS011;23318;50.966;5.284;2023-03-21T03:23:58;19.48;;;7.57;;
37459;SDS011;23318;50.966;5.284;2023-03-21T03:26:40;13.30;;;6.38;;
37459;SDS011;23318;50.966;5.284;2023-03-21T03:29:26;17.70;;;7.00;;
37459;SDS011;23318;50.966;5.284;2023-03-21T03:34:23;18.02;;;7.47;;
37459;SDS011;23318;50.966;5.284;2023-03-21T03:36:53;19.92;;;7.60;;
37459;SDS011;23318;50.966;5.284;2023-03-21T03:39:23;18.58;;;6.53;;
37459;SDS011;23318;50.966;5.284;2023-03-21T03:41:58;17.60;;;6.22;;
37459;SDS011;23318;50.966;5.284;2023-03-21T03:44:31;20.35;;;6.40;;
37459;SDS011;23318;50.966;5.284;2023-03-21T03:49:27;14.38;;;5.50;;
37459;SDS011;23318;50.966;5.284;2023-03-21T03:52:08;13.02;;;5.63;;
37459;SDS011;23318;50.966;5.284;2023-03-21T03:54:41;18.25;;;5.50;;
37459;SDS011;23318;50.966;5.284;2023-03-21T03:57:09;15.00;;;5.80;;
37459;SDS011;23318;50.966;5.284;2023-03-21T03:59:38;15.70;;;5.53;;
37459;SDS011;23318;50.966;5.284;2023-03-21T04:02:06;23.95;;;6.10;;
37459;SDS011;23318;50.966;5.284;2023-03-21T04:04:32;18.10;;;5.55;;
37459;SDS011;23318;50.966;5.284;2023-03-21T04:06:58;15.70;;;5.45;;
37459;SDS011;23318;50.966;5.284;2023-03-21T04:09:24;16.15;;;5.00;;
37459;SDS011;23318;50.966;5.284;2023-03-21T04:11:54;19.50;;;5.50;;
37459;SDS011;23318;50.966;5.284;2023-03-21T04:14:21;17.27;;;5.57;;
37459;SDS011;23318;50.966;5.284;2023-03-21T04:16:47;15.02;;;4.97;;
37459;SDS011;23318;50.966;5.284;2023-03-21T04:19:13;14.15;;;5.22;;
37459;SDS011;23318;50.966;5.284;2023-03-21T04:21:42;13.55;;;4.78;;
37459;SDS011;23318;50.966;5.284;2023-03-21T04:24:08;15.75;;;5.43;;
37459;SDS011;23318;50.966;5.284;2023-03-21T04:26:36;16.00;;;5.53;;
37459;SDS011;23318;50.966;5.284;2023-03-21T04:29:02;12.50;;;4.22;;
37459;SDS011;23318;50.966;5.284;2023-03-21T04:31:28;11.60;;;4.38;;
37459;SDS011;23318;50.966;5.284;2023-03-21T04:33:56;19.27;;;4.93;;
37459;SDS011;23318;50.966;5.284;2023-03-21T04:36:23;12.73;;;4.60;;
37459;SDS011;23318;50.966;5.284;2023-03-21T04:38:51;12.57;;;4.55;;
37459;SDS011;23318;50.966;5.284;2023-03-21T04:41:17;16.80;;;5.30;;
37459;SDS011;23318;50.966;5.284;2023-03-21T04:43:43;14.00;;;4.88;;
37459;SDS011;23318;50.966;5.284;2023-03-21T04:46:09;14.05;;;4.45;;
37459;SDS011;23318;50.966;5.284;2023-03-21T04:48:35;19.08;;;5.03;;
37459;SDS011;23318;50.966;5.284;2023-03-21T04:51:01;16.98;;;4.85;;
37459;SDS011;23318;50.966;5.284;2023-03-21T04:53:27;19.42;;;4.47;;
37459;SDS011;23318;50.966;5.284;2023-03-21T04:55:53;9.80;;;4.25;;
37459;SDS011;23318;50.966;5.284;2023-03-21T04:58:18;13.27;;;5.78;;
37459;SDS011;23318;50.966;5.284;2023-03-21T05:00:44;17.42;;;5.10;;
37459;SDS011;23318;50.966;5.284;2023-03-21T05:03:10;15.75;;;4.68;;
37459;SDS011;23318;50.966;5.284;2023-03-21T05:05:43;16.33;;;5.32;;
37459;SDS011;23318;50.966;5.284;2023-03-21T05:08:09;14.95;;;5.88;;
37459;SDS011;23318;50.966;5.284;2023-03-21T05:10:36;15.00;;;6.05;;
37459;SDS011;23318;50.966;5.284;2023-03-21T05:13:01;15.65;;;5.65;;
37459;SDS011;23318;50.966;5.284;2023-03-21T05:15:27;19.50;;;6.93;;
37459;SDS011;23318;50.966;5.284;2023-03-21T05:17:53;16.73;;;6.40;;
37459;SDS011;23318;50.966;5.284;2023-03-21T05:20:19;17.48;;;6.90;;
37459;SDS011;23318;50.966;5.284;2023-03-21T05:22:45;21.58;;;7.45;;
37459;SDS011;23318;50.966;5.284;2023-03-21T05:25:14;19.50;;;7.45;;
37459;SDS011;23318;50.966;5.284;2023-03-21T05:27:42;17.48;;;8.18;;
37459;SDS011;23318;50.966;5.284;2023-03-21T05:30:16;20.60;;;7.20;;
37459;SDS011;23318;50.966;5.284;2023-03-21T05:32:42;24.50;;;7.10;;
37459;SDS011;23318;50.966;5.284;2023-03-21T05:35:08;22.52;;;7.75;;
37459;SDS011;23318;50.966;5.284;2023-03-21T05:37:34;18.60;;;7.50;;
37459;SDS011;23318;50.966;5.284;2023-03-21T05:40:00;22.77;;;7.90;;
37459;SDS011;23318;50.966;5.284;2023-03-21T05:42:26;15.60;;;7.75;;
37459;SDS011;23318;50.966;5.284;2023-03-21T05:44:51;19.35;;;7.95;;
37459;SDS011;23318;50.966;5.284;2023-03-21T05:47:17;19.08;;;6.90;;
37459;SDS011;23318;50.966;5.284;2023-03-21T05:49:43;17.08;;;6.95;;
37459;SDS011;23318;50.966;5.284;2023-03-21T05:52:09;14.75;;;6.60;;
37459;SDS011;23318;50.966;5.284;2023-03-21T05:54:37;18.80;;;7.35;;
37459;SDS011;23318;50.966;5.284;2023-03-21T05:57:03;18.88;;;6.30;;
37459;SDS011;23318;50.966;5.284;2023-03-21T05:59:29;13.63;;;5.95;;
37459;SDS011;23318;50.966;5.284;2023-03-21T06:01:54;14.52;;;5.95;;
37459;SDS011;23318;50.966;5.284;2023-03-21T06:04:20;16.42;;;6.70;;
37459;SDS011;23318;50.966;5.284;2023-03-21T06:06:46;16.52;;;6.20;;
37459;SDS011;23318;50.966;5.284;2023-03-21T06:09:12;13.23;;;6.15;;
37459;SDS011;23318;50.966;5.284;2023-03-21T06:11:45;15.43;;;6.10;;
37459;SDS011;23318;50.966;5.284;2023-03-21T06:14:12;18.13;;;6.95;;
37459;SDS011;23318;50.966;5.284;2023-03-21T06:16:38;14.45;;;6.22;;
37459;SDS011;23318;50.966;5.284;2023-03-21T06:19:04;17.67;;;6.68;;
37459;SDS011;23318;50.966;5.284;2023-03-21T06:21:30;15.55;;;7.25;;
37459;SDS011;23318;50.966;5.284;2023-03-21T06:23:55;22.52;;;7.72;;
37459;SDS011;23318;50.966;5.284;2023-03-21T06:26:21;20.38;;;6.28;;
37459;SDS011;23318;50.966;5.284;2023-03-21T06:28:50;16.20;;;6.13;;
37459;SDS011;23318;50.966;5.284;2023-03-21T06:31:17;18.35;;;5.95;;
37459;SDS011;23318;50.966;5.284;2023-03-21T06:33:44;18.10;;;5.78;;
37459;SDS011;23318;50.966;5.284;2023-03-21T06:36:10;16.45;;;6.25;;
37459;SDS011;23318;50.966;5.284;2023-03-21T06:38:36;13.30;;;6.60;;
37459;SDS011;23318;50.966;5.284;2023-03-21T06:41:05;20.40;;;6.70;;
37459;SDS011;23318;50.966;5.284;2023-03-21T06:43:32;18.45;;;6.55;;
37459;SDS011;23318;50.966;5.284;2023-03-21T06:45:58;20.23;;;5.90;;
37459;SDS011;23318;50.966;5.284;2023-03-21T06:48:24;17.42;;;6.10;;
37459;SDS011;23318;50.966;5.284;2023-03-21T06:50:51;16.30;;;5.82;;
37459;SDS011;23318;50.966;5.284;2023-03-21T06:53:17;13.45;;;6.05;;
37459;SDS011;23318;50.966;5.284;2023-03-21T06:55:51;20.05;;;6.65;;
37459;SDS011;23318;50.966;5.284;2023-03-21T06:58:19;17.33;;;6.03;;
37459;SDS011;23318;50.966;5.284;2023-03-21T07:00:46;19.65;;;5.95;;
37459;SDS011;23318;50.966;5.284;2023-03-21T07:03:12;17.92;;;5.85;;
37459;SDS011;23318;50.966;5.284;2023-03-21T07:05:38;15.52;;;6.00;;
37459;SDS011;23318;50.966;5.284;2023-03-21T07:08:05;12.93;;;5.88;;
37459;SDS011;23318;50.966;5.284;2023-03-21T07:10:36;12.50;;;5.50;;
37459;SDS011;23318;50.966;5.284;2023-03-21T07:13:03;14.30;;;5.85;;
37459;SDS011;23318;50.966;5.284;2023-03-21T07:15:29;14.10;;;6.05;;
37459;SDS011;23318;50.966;5.284;2023-03-21T07:17:55;14.15;;;6.45;;
37459;SDS011;23318;50.966;5.284;2023-03-21T07:20:21;12.70;;;6.07;;
37459;SDS011;23318;50.966;5.284;2023-03-21T07:22:46;14.27;;;6.22;;
37459;SDS011;23318;50.966;5.284;2023-03-21T07:25:12;15.63;;;6.10;;
37459;SDS011;23318;50.966;5.284;2023-03-21T07:27:38;13.95;;;6.65;;
37459;SDS011;23318;50.966;5.284;2023-03-21T07:30:04;13.35;;;6.13;;
37459;SDS011;23318;50.966;5.284;2023-03-21T07:32:31;17.38;;;6.30;;
37459;SDS011;23318;50.966;5.284;2023-03-21T07:34:58;14.32;;;5.57;;
37459;SDS011;23318;50.966;5.284;2023-03-21T07:37:24;19.52;;;6.20;;
37459;SDS011;23318;50.966;5.284;2023-03-21T07:39:51;16.38;;;5.68;;
37459;SDS011;23318;50.966;5.284;2023-03-21T07:42:17;15.60;;;5.70;;
37459;SDS011;23318;50.966;5.284;2023-03-21T07:44:43;10.85;;;5.75;;
37459;SDS011;23318;50.966;5.284;2023-03-21T07:47:08;15.18;;;6.15;;
37459;SDS011;23318;50.966;5.284;2023-03-21T07:49:35;11.70;;;5.22;;
37459;SDS011;23318;50.966;5.284;2023-03-21T07:52:01;17.27;;;5.55;;
37459;SDS011;23318;50.966;5.284;2023-03-21T07:54:28;16.17;;;5.63;;
37459;SDS011;23318;50.966;5.284;2023-03-21T07:56:54;11.18;;;5.40;;
37459;SDS011;23318;50.966;5.284;2023-03-21T07:59:21;14.77;;;5.47;;
37459;SDS011;23318;50.966;5.284;2023-03-21T08:01:47;13.38;;;5.25;;
37459;SDS011;23318;50.966;5.284;2023-03-21T08:04:12;13.25;;;5.47;;
37459;SDS011;23318;50.966;5.284;2023-03-21T08:06:38;20.27;;;5.85;;
37459;SDS011;23318;50.966;5.284;2023-03-21T08:09:05;17.08;;;6.15;;
37459;SDS011;23318;50.966;5.284;2023-03-21T08:11:30;14.13;;;6.05;;
37459;SDS011;23318;50.966;5.284;2023-03-21T08:13:58;17.05;;;6.20;;
37459;SDS011;23318;50.966;5.284;2023-03-21T08:16:24;13.23;;;5.85;;
37459;SDS011;23318;50.966;5.284;2023-03-21T08:18:50;12.25;;;5.22;;
37459;SDS011;23318;50.966;5.284;2023-03-21T08:21:16;15.25;;;5.35;;
37459;SDS011;23318;50.966;5.284;2023-03-21T08:23:42;15.10;;;6.00;;
37459;SDS011;23318;50.966;5.284;2023-03-21T08:26:08;16.15;;;6.15;;
37459;SDS011;23318;50.966;5.284;2023-03-21T08:28:34;16.80;;;5.28;;
37459;SDS011;23318;50.966;5.284;2023-03-21T08:31:05;16.75;;;6.70;;
37459;SDS011;23318;50.966;5.284;2023-03-21T08:33:32;17.67;;;5.95;;
37459;SDS011;23318;50.966;5.284;2023-03-21T08:36:00;14.50;;;5.22;;
37459;SDS011;23318;50.966;5.284;2023-03-21T08:38:30;15.38;;;5.57;;
37459;SDS011;23318;50.966;5.284;2023-03-21T08:40:57;16.55;;;6.10;;
37459;SDS011;23318;50.966;5.284;2023-03-21T08:43:27;13.55;;;5.22;;
37459;SDS011;23318;50.966;5.284;2023-03-21T08:45:54;15.73;;;5.80;;
37459;SDS011;23318;50.966;5.284;2023-03-21T08:48:20;16.15;;;6.43;;
37459;SDS011;23318;50.966;5.284;2023-03-21T08:50:46;13.15;;;5.22;;
37459;SDS011;23318;50.966;5.284;2023-03-21T08:53:12;12.18;;;4.90;;
37459;SDS011;23318;50.966;5.284;2023-03-21T08:55:38;16.80;;;5.55;;
37459;SDS011;23318;50.966;5.284;2023-03-21T08:58:04;11.93;;;5.07;;
37459;SDS011;23318;50.966;5.284;2023-03-21T09:00:30;13.90;;;5.00;;
37459;SDS011;23318;50.966;5.284;2023-03-21T09:02:56;8.65;;;4.22;;
37459;SDS011;23318;50.966;5.284;2023-03-21T09:05:23;16.95;;;5.40;;
37459;SDS011;23318;50.966;5.284;2023-03-21T09:07:50;14.65;;;4.85;;
37459;SDS011;23318;50.966;5.284;2023-03-21T09:10:18;11.27;;;4.70;;
37459;SDS011;23318;50.966;5.284;2023-03-21T09:12:45;18.27;;;5.38;;
37459;SDS011;23318;50.966;5.284;2023-03-21T09:15:12;8.63;;;4.10;;
37459;SDS011;23318;50.966;5.284;2023-03-21T09:17:38;12.63;;;4.70;;
37459;SDS011;23318;50.966;5.284;2023-03-21T09:20:09;10.43;;;4.47;;
37459;SDS011;23318;50.966;5.284;2023-03-21T09:22:42;16.35;;;4.25;;
37459;SDS011;23318;50.966;5.284;2023-03-21T09:25:16;12.20;;;4.30;;
37459;SDS011;23318;50.966;5.284;2023-03-21T09:27:43;10.25;;;4.10;;
37459;SDS011;23318;50.966;5.284;2023-03-21T09:30:13;13.90;;;4.47;;
37459;SDS011;23318;50.966;5.284;2023-03-21T09:32:40;11.90;;;4.85;;
37459;SDS011;23318;50.966;5.284;2023-03-21T09:35:07;15.45;;;4.60;;
37459;SDS011;23318;50.966;5.284;2023-03-21T09:37:35;15.10;;;4.50;;
37459;SDS011;23318;50.966;5.284;2023-03-21T09:40:07;13.23;;;4.57;;
37459;SDS011;23318;50.966;5.284;2023-03-21T09:42:57;17.73;;;4.05;;
37459;SDS011;23318;50.966;5.284;2023-03-21T09:45:38;11.77;;;4.28;;
37459;SDS011;23318;50.966;5.284;2023-03-21T09:48:16;14.98;;;4.60;;
37459;SDS011;23318;50.966;5.284;2023-03-21T09:50:50;11.98;;;4.07;;
37459;SDS011;23318;50.966;5.284;2023-03-21T09:53:22;9.23;;;4.28;;
37459;SDS011;23318;50.966;5.284;2023-03-21T09:55:54;9.75;;;4.25;;
37459;SDS011;23318;50.966;5.284;2023-03-21T09:58:37;10.38;;;3.83;;
37459;SDS011;23318;50.966;5.284;2023-03-21T10:01:11;8.55;;;4.10;;
37459;SDS011;23318;50.966;5.284;2023-03-21T10:03:46;11.82;;;4.13;;
37459;SDS011;23318;50.966;5.284;2023-03-21T10:06:15;17.17;;;4.43;;
37459;SDS011;23318;50.966;5.284;2023-03-21T10:08:42;11.40;;;4.32;;
37459;SDS011;23318;50.966;5.284;2023-03-21T10:11:14;12.15;;;4.28;;
37459;SDS011;23318;50.966;5.284;2023-03-21T10:13:48;11.98;;;4.75;;
37459;SDS011;23318;50.966;5.284;2023-03-21T10:16:33;7.85;;;3.53;;
37459;SDS011;23318;50.966;5.284;2023-03-21T10:19:03;13.77;;;4.05;;
37459;SDS011;23318;50.966;5.284;2023-03-21T10:21:35;10.52;;;3.90;;
37459;SDS011;23318;50.966;5.284;2023-03-21T10:24:07;12.80;;;4.38;;
37459;SDS011;23318;50.966;5.284;2023-03-21T10:26:37;8.27;;;3.92;;
37459;SDS011;23318;50.966;5.284;2023-03-21T10:29:03;10.25;;;4.47;;
37459;SDS011;23318;50.966;5.284;2023-03-21T10:31:29;13.68;;;3.97;;
37459;SDS011;23318;50.966;5.284;2023-03-21T10:34:01;13.48;;;4.25;;
37459;SDS011;23318;50.966;5.284;2023-03-21T10:36:29;9.38;;;4.25;;
37459;SDS011;23318;50.966;5.284;2023-03-21T10:39:02;13.40;;;3.83;;
37459;SDS011;23318;50.966;5.284;2023-03-21T10:41:32;13.43;;;4.18;;
37459;SDS011;23318;50.966;5.284;2023-03-21T10:44:06;11.25;;;4.18;;
37459;SDS011;23318;50.966;5.284;2023-03-21T10:46:38;7.55;;;3.63;;
37459;SDS011;23318;50.966;5.284;2023-03-21T10:49:18;10.65;;;3.88;;
37459;SDS011;23318;50.966;5.284;2023-03-21T10:51:45;12.10;;;3.78;;
37459;SDS011;23318;50.966;5.284;2023-03-21T10:54:17;12.75;;;4.25;;
37459;SDS011;23318;50.966;5.284;2023-03-21T10:56:55;16.80;;;3.90;;
37459;SDS011;23318;50.966;5.284;2023-03-21T10:59:25;9.48;;;3.83;;
37459;SDS011;23318;50.966;5.284;2023-03-21T11:02:01;9.45;;;3.08;;
37459;SDS011;23318;50.966;5.284;2023-03-21T11:04:28;10.23;;;3.25;;
37459;SDS011;23318;50.966;5.284;2023-03-21T11:06:57;8.10;;;2.80;;
37459;SDS011;23318;50.966;5.284;2023-03-21T11:09:43;8.70;;;3.40;;
37459;SDS011;23318;50.966;5.284;2023-03-21T11:12:18;8.23;;;2.67;;
37459;SDS011;23318;50.966;5.284;2023-03-21T11:15:25;9.32;;;2.85;;
37459;SDS011;23318;50.966;5.284;2023-03-21T11:17:54;8.50;;;3.00;;
37459;SDS011;23318;50.966;5.284;2023-03-21T11:20:21;5.80;;;2.63;;
37459;SDS011;23318;50.966;5.284;2023-03-21T11:22:47;10.13;;;2.75;;
37459;SDS011;23318;50.966;5.284;2023-03-21T11:30:21;5.75;;;2.40;;
37459;SDS011;23318;50.966;5.284;2023-03-21T11:32:56;9.07;;;3.28;;
37459;SDS011;23318;50.966;5.284;2023-03-21T11:35:40;9.18;;;2.80;;
37459;SDS011;23318;50.966;5.284;2023-03-21T11:38:09;8.77;;;3.47;;
37459;SDS011;23318;50.966;5.284;2023-03-21T11:40:52;8.27;;;2.78;;
37459;SDS011;23318;50.966;5.284;2023-03-21T11:46:01;6.22;;;2.53;;
37459;SDS011;23318;50.966;5.284;2023-03-21T11:48:37;7.28;;;2.80;;
37459;SDS011;23318;50.966;5.284;2023-03-21T11:54:11;6.82;;;2.85;;
37459;SDS011;23318;50.966;5.284;2023-03-21T11:56:47;6.53;;;3.08;;
37459;SDS011;23318;50.966;5.284;2023-03-21T12:05:18;8.13;;;2.22;;
37459;SDS011;23318;50.966;5.284;2023-03-21T12:10:47;6.35;;;2.55;;
37459;SDS011;23318;50.966;5.284;2023-03-21T12:18:59;6.03;;;2.40;;
37459;SDS011;23318;50.966;5.284;2023-03-21T12:24:19;9.52;;;2.85;;
37459;SDS011;23318;50.966;5.284;2023-03-21T12:45:54;8.68;;;2.67;;
37459;SDS011;23318;50.966;5.284;2023-03-21T12:48:44;4.95;;;2.50;;
37459;SDS011;23318;50.966;5.284;2023-03-21T12:51:15;5.97;;;2.60;;
37459;SDS011;23318;50.966;5.284;2023-03-21T12:53:49;4.10;;;2.30;;
37459;SDS011;23318;50.966;5.284;2023-03-21T12:56:30;8.77;;;2.85;;
37459;SDS011;23318;50.966;5.284;2023-03-21T12:59:05;8.27;;;2.72;;
37459;SDS011;23318;50.966;5.284;2023-03-21T13:01:36;6.97;;;2.97;;
37459;SDS011;23318;50.966;5.284;2023-03-21T13:06:32;8.63;;;2.78;;
37459;SDS011;23318;50.966;5.284;2023-03-21T13:09:17;6.20;;;2.03;;
37459;SDS011;23318;50.966;5.284;2023-03-21T13:11:51;4.03;;;2.30;;
37459;SDS011;23318;50.966;5.284;2023-03-21T13:14:23;6.18;;;2.45;;
37459;SDS011;23318;50.966;5.284;2023-03-21T13:17:05;7.72;;;2.60;;
37459;SDS011;23318;50.966;5.284;2023-03-21T13:19:45;9.80;;;1.98;;
37459;SDS011;23318;50.966;5.284;2023-03-21T13:22:32;7.18;;;2.60;;
37459;SDS011;23318;50.966;5.284;2023-03-21T13:24:59;7.72;;;2.58;;
37459;SDS011;23318;50.966;5.284;2023-03-21T13:27:30;5.75;;;2.50;;
37459;SDS011;23318;50.966;5.284;2023-03-21T13:32:39;6.28;;;2.72;;
37459;SDS011;23318;50.966;5.284;2023-03-21T13:35:20;5.15;;;2.88;;
37459;SDS011;23318;50.966;5.284;2023-03-21T13:38:35;6.20;;;2.67;;
37459;SDS011;23318;50.966;5.284;2023-03-21T13:43:54;6.88;;;2.80;;
37459;SDS011;23318;50.966;5.284;2023-03-21T13:46:44;6.35;;;2.80;;
37459;SDS011;23318;50.966;5.284;2023-03-21T13:49:39;11.77;;;2.83;;
37459;SDS011;23318;50.966;5.284;2023-03-21T13:57:03;7.10;;;3.08;;
37459;SDS011;23318;50.966;5.284;2023-03-21T13:59:37;4.97;;;2.55;;
37459;SDS011;23318;50.966;5.284;2023-03-21T14:04:36;6.03;;;2.80;;
37459;SDS011;23318;50.966;5.284;2023-03-21T14:07:11;7.65;;;2.80;;
37459;SDS011;23318;50.966;5.284;2023-03-21T14:09:49;6.07;;;2.30;;
37459;SDS011;23318;50.966;5.284;2023-03-21T14:12:18;5.38;;;2.63;;
37459;SDS011;23318;50.966;5.284;2023-03-21T14:15:00;5.65;;;2.55;;
37459;SDS011;23318;50.966;5.284;2023-03-21T14:17:33;5.22;;;2.60;;
37459;SDS011;23318;50.966;5.284;2023-03-21T14:22:34;8.07;;;2.50;;
37459;SDS011;23318;50.966;5.284;2023-03-21T14:25:00;6.20;;;2.30;;
37459;SDS011;23318;50.966;5.284;2023-03-21T14:27:29;4.15;;;1.92;;
37459;SDS011;23318;50.966;5.284;2023-03-21T14:29:57;3.42;;;2.33;;
37459;SDS011;23318;50.966;5.284;2023-03-21T14:32:25;5.55;;;2.33;;
37459;SDS011;23318;50.966;5.284;2023-03-21T14:34:54;5.25;;;1.92;;
37459;SDS011;23318;50.966;5.284;2023-03-21T14:37:36;5.53;;;2.40;;
37459;SDS011;23318;50.966;5.284;2023-03-21T14:40:05;4.20;;;2.03;;
37459;SDS011;23318;50.966;5.284;2023-03-21T14:42:44;3.38;;;1.77;;
37459;SDS011;23318;50.966;5.284;2023-03-21T14:47:54;5.82;;;2.78;;
37459;SDS011;23318;50.966;5.284;2023-03-21T14:50:28;3.67;;;2.33;;
37459;SDS011;23318;50.966;5.284;2023-03-21T14:52:58;3.78;;;2.20;;
37459;SDS011;23318;50.966;5.284;2023-03-21T14:55:25;7.95;;;2.30;;
37459;SDS011;23318;50.966;5.284;2023-03-21T14:57:51;3.53;;;2.28;;
37459;SDS011;23318;50.966;5.284;2023-03-21T15:00:28;5.90;;;1.92;;
37459;SDS011;23318;50.966;5.284;2023-03-21T15:02:56;8.00;;;2.45;;
37459;SDS011;23318;50.966;5.284;2023-03-21T15:05:24;3.97;;;1.83;;
37459;SDS011;23318;50.966;5.284;2023-03-21T15:10:28;5.45;;;2.67;;
37459;SDS011;23318;50.966;5.284;2023-03-21T15:12:59;5.30;;;2.15;;
37459;SDS011;23318;50.966;5.284;2023-03-21T15:15:37;8.32;;;2.92;;
37459;SDS011;23318;50.966;5.284;2023-03-21T15:18:04;4.07;;;2.17;;
37459;SDS011;23318;50.966;5.284;2023-03-21T15:20:33;7.85;;;2.17;;
37459;SDS011;23318;50.966;5.284;2023-03-21T15:23:25;7.10;;;3.45;;
37459;SDS011;23318;50.966;5.284;2023-03-21T15:25:51;4.70;;;2.10;;
37459;SDS011;23318;50.966;5.284;2023-03-21T15:28:17;5.25;;;2.20;;
37459;SDS011;23318;50.966;5.284;2023-03-21T15:30:47;7.55;;;2.47;;
37459;SDS011;23318;50.966;5.284;2023-03-21T15:33:15;6.85;;;2.72;;
37459;SDS011;23318;50.966;5.284;2023-03-21T15:35:42;5.68;;;2.50;;
37459;SDS011;23318;50.966;5.284;2023-03-21T15:38:22;7.05;;;2.70;;
37459;SDS011;23318;50.966;5.284;2023-03-21T15:43:39;5.57;;;2.60;;
37459;SDS011;23318;50.966;5.284;2023-03-21T15:46:12;7.43;;;3.17;;
37459;SDS011;23318;50.966;5.284;2023-03-21T15:51:50;5.30;;;2.88;;
37459;SDS011;23318;50.966;5.284;2023-03-21T15:54:26;4.82;;;2.20;;
37459;SDS011;23318;50.966;5.284;2023-03-21T15:56:55;6.68;;;3.22;;
37459;SDS011;23318;50.966;5.284;2023-03-21T15:59:29;7.38;;;3.20;;
37459;SDS011;23318;50.966;5.284;2023-03-21T16:02:13;8.15;;;3.03;;
37459;SDS011;23318;50.966;5.284;2023-03-21T16:07:25;7.68;;;3.03;;
37459;SDS011;23318;50.966;5.284;2023-03-21T16:09:56;4.50;;;2.78;;
37459;SDS011;23318;50.966;5.284;2023-03-21T16:12:28;7.80;;;3.00;;
37459;SDS011;23318;50.966;5.284;2023-03-21T16:14:54;5.82;;;3.55;;
37459;SDS011;23318;50.966;5.284;2023-03-21T16:17:30;5.35;;;2.72;;
37459;SDS011;23318;50.966;5.284;2023-03-21T16:19:58;7.15;;;2.60;;
37459;SDS011;23318;50.966;5.284;2023-03-21T16:22:25;8.10;;;2.55;;
37459;SDS011;23318;50.966;5.284;2023-03-21T16:24:50;5.00;;;2.88;;
37459;SDS011;23318;50.966;5.284;2023-03-21T16:27:16;6.25;;;3.15;;
37459;SDS011;23318;50.966;5.284;2023-03-21T16:29:44;8.60;;;3.67;;
37459;SDS011;23318;50.966;5.284;2023-03-21T16:32:14;6.00;;;2.88;;
37459;SDS011;23318;50.966;5.284;2023-03-21T16:34:42;6.72;;;2.90;;
37459;SDS011;23318;50.966;5.284;2023-03-21T16:37:10;6.28;;;3.50;;
37459;SDS011;23318;50.966;5.284;2023-03-21T16:39:37;4.28;;;3.00;;
37459;SDS011;23318;50.966;5.284;2023-03-21T16:42:03;7.53;;;3.25;;
37459;SDS011;23318;50.966;5.284;2023-03-21T16:44:28;11.25;;;4.65;;
37459;SDS011;23318;50.966;5.284;2023-03-21T16:46:54;7.82;;;3.97;;
37459;SDS011;23318;50.966;5.284;2023-03-21T16:49:24;6.05;;;3.78;;
37459;SDS011;23318;50.966;5.284;2023-03-21T16:51:52;8.38;;;4.13;;
37459;SDS011;23318;50.966;5.284;2023-03-21T16:54:18;13.07;;;4.32;;